Time;durP1;ratioP1;P1;durP2;ratioP2;P2;SDS_P1;SDS_P2;PMS_P1;PMS_P2;Temp;Humidity;BMP_temperature;BMP_pressure;BME280_temperature;BME280_humidity;BME280_pressure;Samples;Min_cycle;Max_cycle;Signal;HPM_P1;HPM_P2
2022/08/01 00:02:43;;;;;;;1.63;1.10;;;22.70;60.60;;;;;;20807427;28;20041;-81
2022/08/01 00:12:44;;;;;;;2.08;1.42;;;22.70;60.60;;;;;;20831095;28;20300;-82
2022/08/01 00:22:44;;;;;;;2.17;1.20;;;22.70;60.70;;;;;;20812728;28;20046;-81
2022/08/01 00:32:45;;;;;;;2.50;1.52;;;22.70;60.80;;;;;;20803181;28;20037;-80
2022/08/01 00:42:45;;;;;;;1.88;1.30;;;22.70;60.80;;;;;;20795973;28;20041;-81
2022/08/01 00:52:46;;;;;;;1.33;0.90;;;22.70;60.80;;;;;;20795756;28;20159;-81
2022/08/01 01:02:46;;;;;;;2.00;1.10;;;22.70;60.90;;;;;;21159781;22;20049;-78
2022/08/01 01:12:54;;;;;;;2.22;1.30;;;22.70;61.00;;;;;;20726584;28;20076;-79
2022/08/01 01:23:32;;;;;;;1.27;0.98;;;22.70;61.00;;;;;;20705457;28;20380;-79
2022/08/01 01:33:34;;;;;;;1.67;1.38;;;22.70;61.10;;;;;;20750370;28;20492;-79
2022/08/01 01:43:35;;;;;;;2.05;1.33;;;22.70;61.10;;;;;;20718381;28;20515;-79
2022/08/01 01:53:35;;;;;;;1.05;0.95;;;22.70;61.20;;;;;;20726268;28;20057;-79
2022/08/01 02:03:36;;;;;;;1.73;0.90;;;22.70;61.30;;;;;;20741789;28;20124;-78
2022/08/01 02:13:37;;;;;;;1.63;1.30;;;22.70;61.40;;;;;;20720123;28;20351;-77
2022/08/01 02:23:37;;;;;;;1.13;0.88;;;22.70;61.50;;;;;;20708113;28;20546;-78
2022/08/01 02:33:39;;;;;;;1.67;1.13;;;22.70;61.60;;;;;;20706396;28;20484;-79
2022/08/01 02:43:42;;;;;;;2.22;1.08;;;22.60;61.60;;;;;;20695677;28;20037;-77
2022/08/01 02:53:43;;;;;;;2.08;1.08;;;22.60;61.80;;;;;;20734885;28;20045;-78
2022/08/01 03:03:43;;;;;;;1.13;0.80;;;22.60;61.90;;;;;;20723374;28;20095;-79
2022/08/01 03:13:44;;;;;;;1.60;1.15;;;22.70;62.00;;;;;;20738250;28;20046;-78
2022/08/01 03:23:45;;;;;;;1.20;1.00;;;22.70;62.20;;;;;;20754208;28;20076;-78
2022/08/01 03:33:45;;;;;;;1.65;0.90;;;22.60;62.30;;;;;;20720539;28;20395;-77
2022/08/01 03:43:48;;;;;;;1.95;1.20;;;22.60;62.40;;;;;;20719427;28;20488;-77
2022/08/01 03:53:48;;;;;;;1.00;0.90;;;22.70;62.70;;;;;;20718899;28;20068;-78
2022/08/01 04:03:49;;;;;;;0.73;0.63;;;22.60;62.90;;;;;;20731601;28;20532;-78
2022/08/01 04:13:51;;;;;;;1.25;0.80;;;22.60;63.00;;;;;;20767749;28;20297;-78
2022/08/01 04:23:52;;;;;;;1.50;0.90;;;22.60;63.10;;;;;;20748752;28;20045;-77
2022/08/01 04:33:53;;;;;;;1.08;0.80;;;22.60;63.30;;;;;;20731170;28;20440;-78
2022/08/01 04:43:54;;;;;;;1.40;0.98;;;22.70;63.40;;;;;;20701013;28;20048;-78
2022/08/01 04:53:57;;;;;;;1.15;0.80;;;22.60;63.20;;;;;;20731715;28;20037;-74
2022/08/01 05:03:58;;;;;;;1.13;0.68;;;22.60;63.20;;;;;;20714216;28;20061;-78
2022/08/01 05:13:58;;;;;;;0.60;0.60;;;22.60;63.30;;;;;;20728809;28;20033;-79
2022/08/01 05:23:59;;;;;;;1.23;0.80;;;22.60;63.30;;;;;;20712008;28;20069;-76
2022/08/01 05:34:01;;;;;;;2.15;0.90;;;22.60;63.30;;;;;;20727533;28;20026;-75
2022/08/01 05:44:02;;;;;;;1.45;0.90;;;22.60;63.50;;;;;;20711458;28;20128;-82
2022/08/01 05:54:02;;;;;;;0.85;0.73;;;22.60;63.60;;;;;;20726541;28;20038;-80
2022/08/01 06:04:03;;;;;;;2.10;0.60;;;22.50;63.60;;;;;;20709952;28;20049;-81
2022/08/01 06:14:04;;;;;;;2.05;1.10;;;22.60;63.60;;;;;;20719730;28;20822;-78
2022/08/01 06:24:04;;;;;;;1.60;0.90;;;22.60;63.60;;;;;;20738961;28;20077;-79
2022/08/01 06:34:05;;;;;;;1.08;0.57;;;22.70;63.70;;;;;;20739832;28;20034;-79
2022/08/01 06:44:06;;;;;;;0.90;0.70;;;22.60;63.60;;;;;;20722663;28;20056;-77
2022/08/01 06:54:06;;;;;;;0.70;0.50;;;22.60;63.50;;;;;;20722797;28;20109;-74
2022/08/01 07:04:07;;;;;;;0.85;0.65;;;22.60;63.50;;;;;;20706392;28;20042;-74
2022/08/01 07:14:07;;;;;;;1.60;1.00;;;22.50;63.40;;;;;;20739248;28;20195;-75
2022/08/01 07:24:09;;;;;;;1.23;0.60;;;22.60;63.50;;;;;;20720518;28;20037;-73
2022/08/01 07:34:09;;;;;;;0.70;0.70;;;22.50;63.50;;;;;;20705550;28;20088;-75
2022/08/01 07:44:10;;;;;;;0.90;0.70;;;22.60;63.50;;;;;;20735491;28;20065;-76
2022/08/01 07:54:10;;;;;;;2.60;0.95;;;22.60;63.50;;;;;;20735127;28;20124;-76
2022/08/01 08:04:11;;;;;;;0.60;0.50;;;22.60;63.60;;;;;;20718428;28;20030;-75
2022/08/01 08:14:12;;;;;;;1.48;0.80;;;22.60;63.60;;;;;;20716841;28;20288;-74
2022/08/01 08:24:23;;;;;;;0.55;0.30;;;22.60;63.50;;;;;;20750795;28;20038;-74
2022/08/01 08:34:24;;;;;;;0.98;0.57;;;22.70;63.50;;;;;;20748387;28;20521;-73
2022/08/01 08:44:24;;;;;;;0.68;0.50;;;22.60;63.30;;;;;;20731666;28;20061;-74
2022/08/01 08:54:25;;;;;;;0.75;0.52;;;22.60;63.30;;;;;;20731237;28;20052;-73
2022/08/01 09:04:26;;;;;;;0.43;0.40;;;22.60;63.30;;;;;;20710403;28;20037;-74
2022/08/01 09:14:29;;;;;;;3.40;0.57;;;22.70;63.30;;;;;;20712555;28;20041;-73
2022/08/01 09:24:30;;;;;;;0.88;0.50;;;22.70;63.40;;;;;;20728938;28;20471;-73
2022/08/01 09:34:32;;;;;;;0.40;0.32;;;22.70;63.50;;;;;;20711230;28;20042;-73
2022/08/01 09:44:43;;;;;;;0.30;0.30;;;22.60;63.50;;;;;;20710009;28;20037;-73
2022/08/01 09:54:51;;;;;;;0.50;0.32;;;22.60;63.70;;;;;;20728057;28;20070;-73
2022/08/01 10:04:52;;;;;;;0.63;0.40;;;22.70;64.00;;;;;;20723639;28;20092;-74
2022/08/01 10:14:55;;;;;;;0.60;0.40;;;22.70;64.20;;;;;;20736031;28;20065;-73
2022/08/01 10:24:56;;;;;;;0.40;0.40;;;22.70;64.30;;;;;;20740966;28;20037;-74
2022/08/01 10:34:57;;;;;;;0.60;0.40;;;22.70;64.30;;;;;;20707890;28;20041;-74
2022/08/01 10:44:58;;;;;;;0.57;0.57;;;22.70;64.20;;;;;;20706816;28;20125;-73
2022/08/01 10:55:11;;;;;;;1.20;0.50;;;22.70;64.10;;;;;;20739121;28;20096;-73
2022/08/01 11:05:19;;;;;;;0.43;0.30;;;22.60;63.90;;;;;;20706287;28;20416;-74
2022/08/01 11:15:30;;;;;;;0.40;0.35;;;22.60;63.80;;;;;;20749600;28;20045;-73
2022/08/01 11:25:36;;;;;;;0.30;0.30;;;22.70;63.70;;;;;;20724045;28;20045;-73
2022/08/01 11:35:37;;;;;;;0.40;0.30;;;22.60;63.60;;;;;;20762519;28;20053;-73
2022/08/01 11:45:51;;;;;;;0.38;0.38;;;22.60;63.40;;;;;;20735935;28;20468;-73
2022/08/01 11:55:52;;;;;;;0.68;0.40;;;22.70;63.40;;;;;;20736320;28;20044;-73
2022/08/01 12:05:54;;;;;;;0.40;0.40;;;22.70;63.50;;;;;;20734009;28;20072;-74
2022/08/01 12:15:54;;;;;;;1.30;0.60;;;22.70;63.60;;;;;;20717387;28;20132;-74
2022/08/01 12:25:55;;;;;;;0.52;0.40;;;22.70;63.70;;;;;;20732563;28;20117;-73
2022/08/01 12:35:55;;;;;;;1.38;0.35;;;22.70;63.80;;;;;;20733012;28;20030;-74
2022/08/01 12:45:58;;;;;;;0.85;0.50;;;22.70;63.80;;;;;;20715513;28;20429;-73
2022/08/01 12:55:58;;;;;;;0.68;0.40;;;22.70;63.80;;;;;;20714229;28;20554;-73
2022/08/01 13:05:59;;;;;;;1.70;0.50;;;22.70;63.60;;;;;;20710986;28;20042;-72
2022/08/01 13:16:05;;;;;;;1.40;0.65;;;22.80;63.50;;;;;;20745584;28;20058;-72
2022/08/01 13:26:05;;;;;;;0.55;0.50;;;22.80;63.30;;;;;;20712301;28;20030;-72
2022/08/01 13:36:06;;;;;;;0.28;0.28;;;22.80;63.20;;;;;;20712048;28;20145;-73
2022/08/01 13:46:06;;;;;;;3.90;0.50;;;22.90;63.00;;;;;;20726619;28;20041;-73
2022/08/01 13:56:07;;;;;;;2.35;0.65;;;22.90;62.70;;;;;;20710896;28;20347;-73
2022/08/01 14:06:08;;;;;;;0.85;0.52;;;22.90;62.60;;;;;;20723188;28;20133;-72
2022/08/01 14:16:08;;;;;;;1.88;0.60;;;22.90;62.40;;;;;;20732743;28;20044;-73
2022/08/01 14:26:09;;;;;;;1.73;0.60;;;23.00;62.20;;;;;;20709014;28;20030;-73
2022/08/01 14:36:10;;;;;;;1.55;0.50;;;23.00;62.20;;;;;;20723179;28;20050;-71
2022/08/01 14:46:12;;;;;;;2.08;0.52;;;23.00;62.10;;;;;;20730801;28;20384;-74
2022/08/01 14:56:12;;;;;;;1.02;0.65;;;23.00;62.00;;;;;;20722820;28;20034;-72
2022/08/01 15:06:13;;;;;;;2.40;0.80;;;23.10;62.10;;;;;;20714332;28;20045;-69
2022/08/01 15:16:14;;;;;;;2.55;0.60;;;23.00;61.90;;;;;;20748169;28;20439;-73
2022/08/01 15:26:14;;;;;;;2.20;0.82;;;23.00;61.90;;;;;;20706080;28;20032;-75
2022/08/01 15:36:15;;;;;;;0.90;0.70;;;23.00;61.90;;;;;;20705689;28;20124;-72
2022/08/01 15:46:15;;;;;;;4.20;1.20;;;23.00;61.90;;;;;;20735060;28;20056;-73
2022/08/01 15:56:16;;;;;;;3.55;0.93;;;23.00;61.80;;;;;;20706298;28;20038;-73
2022/08/01 16:06:17;;;;;;;3.55;2.17;;;23.00;61.70;;;;;;20732204;28;20037;-74
2022/08/01 16:16:18;;;;;;;7.95;1.88;;;23.00;61.70;;;;;;20742375;28;20032;-73
2022/08/01 16:26:18;;;;;;;4.10;1.40;;;22.90;61.80;;;;;;20732546;28;20030;-74
2022/08/01 16:36:19;;;;;;;6.20;1.13;;;22.90;61.70;;;;;;20714567;28;20122;-74
2022/08/01 16:46:20;;;;;;;3.88;1.33;;;23.00;61.60;;;;;;20714191;28;20057;-73
2022/08/01 16:56:21;;;;;;;3.10;1.35;;;23.00;61.60;;;;;;20728924;28;20380;-74
2022/08/01 17:06:21;;;;;;;3.17;1.45;;;23.00;61.50;;;;;;20710871;28;20092;-72
2022/08/01 17:16:22;;;;;;;7.10;1.60;;;23.10;62.20;;;;;;20760568;28;20041;-73
2022/08/01 17:26:22;;;;;;;7.35;1.75;;;23.20;61.60;;;;;;20711162;28;20037;-71
2022/08/01 17:36:23;;;;;;;3.85;1.60;;;23.20;61.70;;;;;;20710185;28;20051;-73
2022/08/01 17:46:23;;;;;;;5.43;2.08;;;23.20;61.60;;;;;;20741776;28;20112;-73
2022/08/01 17:56:25;;;;;;;3.85;1.60;;;23.10;61.30;;;;;;20709213;28;20040;-74
2022/08/01 18:06:27;;;;;;;5.05;1.42;;;23.10;61.20;;;;;;20722248;28;20053;-74
2022/08/01 18:16:27;;;;;;;8.57;1.67;;;23.20;61.30;;;;;;20740236;28;20030;-75
2022/08/01 18:26:28;;;;;;;2.88;1.45;;;23.20;61.50;;;;;;20738648;28;20038;-75
2022/08/01 18:36:28;;;;;;;4.20;1.50;;;23.20;61.70;;;;;;20717863;28;20038;-75
2022/08/01 18:46:29;;;;;;;3.15;1.45;;;23.10;61.70;;;;;;20705426;28;20045;-74
2022/08/01 18:56:30;;;;;;;3.22;1.10;;;23.10;61.60;;;;;;20698384;28;20030;-73
2022/08/01 19:06:30;;;;;;;3.17;1.40;;;23.10;61.60;;;;;;20704695;28;20496;-75
2022/08/01 19:16:31;;;;;;;3.13;1.43;;;23.10;61.50;;;;;;20698037;28;20439;-74
2022/08/01 19:26:32;;;;;;;2.53;1.05;;;23.10;61.50;;;;;;20738069;28;20160;-74
2022/08/01 19:36:33;;;;;;;2.33;1.30;;;23.00;61.40;;;;;;20716266;28;20046;-74
2022/08/01 19:46:33;;;;;;;4.38;1.10;;;23.00;61.40;;;;;;20719929;28;20034;-76
2022/08/01 19:56:38;;;;;;;2.72;1.10;;;23.00;61.40;;;;;;20742950;28;20037;-76
2022/08/01 20:06:39;;;;;;;1.88;1.00;;;23.00;61.40;;;;;;20748243;28;20045;-75
2022/08/01 20:16:39;;;;;;;2.38;1.08;;;22.90;61.30;;;;;;20766490;28;20380;-74
2022/08/01 20:26:40;;;;;;;2.28;1.00;;;22.90;61.30;;;;;;20717221;28;20451;-74
2022/08/01 20:36:41;;;;;;;3.55;1.00;;;22.90;61.30;;;;;;20716530;28;20037;-74
2022/08/01 20:46:41;;;;;;;2.92;1.00;;;22.90;61.30;;;;;;20746856;28;20048;-76
2022/08/01 20:57:06;;;;;;;1.92;0.88;;;22.90;61.30;;;;;;20747143;28;20088;-74
2022/08/01 21:07:19;;;;;;;2.70;0.95;;;22.90;61.20;;;;;;20729505;28;20053;-74
2022/08/01 21:17:36;;;;;;;1.30;0.90;;;22.90;61.20;;;;;;20702120;28;20041;-75
2022/08/01 21:27:38;;;;;;;1.08;0.82;;;22.80;61.90;;;;;;20745956;28;20061;-75
2022/08/01 21:37:38;;;;;;;3.60;1.00;;;22.80;61.20;;;;;;20727997;28;20157;-75
2022/08/01 21:47:39;;;;;;;1.38;0.80;;;22.80;61.20;;;;;;20743665;28;20555;-74
2022/08/01 21:57:50;;;;;;;1.63;0.63;;;22.80;61.20;;;;;;20723949;28;20399;-74
2022/08/01 22:07:52;;;;;;;1.30;0.70;;;22.80;61.10;;;;;;20699476;28;20049;-73
2022/08/01 22:17:53;;;;;;;1.08;0.52;;;22.70;61.10;;;;;;20741207;28;20044;-75
2022/08/01 22:27:53;;;;;;;1.73;0.65;;;22.70;61.10;;;;;;20740214;28;20026;-74
2022/08/01 22:37:54;;;;;;;1.33;0.80;;;22.70;61.10;;;;;;20707356;28;20033;-76
2022/08/01 22:47:58;;;;;;;2.47;0.77;;;22.70;61.00;;;;;;20723294;28;20033;-75
2022/08/01 22:58:01;;;;;;;1.30;0.73;;;22.70;61.00;;;;;;20722650;28;20084;-75
2022/08/01 23:08:03;;;;;;;1.30;0.68;;;22.60;60.90;;;;;;20719937;28;20057;-74
2022/08/01 23:18:03;;;;;;;1.52;0.90;;;22.60;60.90;;;;;;20723016;28;20037;-75
2022/08/01 23:28:04;;;;;;;1.43;0.93;;;22.60;60.80;;;;;;20737827;28;20038;-75
2022/08/01 23:38:05;;;;;;;1.27;0.77;;;22.60;60.80;;;;;;20720669;28;20106;-74
2022/08/01 23:48:05;;;;;;;1.30;0.65;;;22.50;60.70;;;;;;20752485;28;20042;-75
2022/08/01 23:58:06;;;;;;;1.58;0.73;;;22.50;60.60;;;;;;20735340;28;20037;-75
